Time;durP1;ratioP1;P1;durP2;ratioP2;P2;SDS_P1;SDS_P2;PMS_P1;PMS_P2;Temp;Humidity;BMP_temperature;BMP_pressure;BME280_temperature;BME280_humidity;BME280_pressure;Samples;Min_cycle;Max_cycle;Signal;HPM_P1;HPM_P2
2023/08/23 00:01:51;;;;;;;9.98;6.20;;;;;;;22.73;100.00;94759.97;4939217;29;20031;-86
2023/08/23 00:04:19;;;;;;;12.18;6.10;;;;;;;22.58;100.00;94761.41;4906532;29;20043;-86
2023/08/23 00:06:45;;;;;;;10.38;6.15;;;;;;;22.77;100.00;94760.09;4922520;29;20058;-86
2023/08/23 00:09:11;;;;;;;14.13;6.20;;;;;;;22.72;100.00;94763.75;4938738;29;20130;-87
2023/08/23 00:11:36;;;;;;;15.15;6.28;;;;;;;22.56;100.00;94752.97;4922507;29;20074;-86
2023/08/23 00:14:02;;;;;;;9.82;6.03;;;;;;;22.68;100.00;94752.19;4939186;29;20040;-87
2023/08/23 00:16:28;;;;;;;10.10;6.25;;;;;;;22.83;100.00;94756.06;4922278;29;20050;-86
2023/08/23 00:18:53;;;;;;;9.52;6.38;;;;;;;22.83;100.00;94741.94;4933062;29;20028;-87
2023/08/23 00:21:19;;;;;;;9.80;5.75;;;;;;;22.63;100.00;94748.97;4944568;29;20456;-87
2023/08/23 00:23:45;;;;;;;8.20;5.43;;;;;;;22.68;100.00;94738.06;4944658;29;20035;-86
2023/08/23 00:26:13;;;;;;;12.23;5.82;;;;;;;22.79;100.00;94739.16;4961903;29;20054;-86
2023/08/23 00:28:39;;;;;;;12.57;6.38;;;;;;;22.76;100.00;94739.03;4944050;29;20059;-87
2023/08/23 00:31:04;;;;;;;10.40;5.07;;;;;;;22.81;100.00;94736.13;4944395;29;20060;-87
2023/08/23 00:33:30;;;;;;;9.10;5.57;;;;;;;22.87;100.00;94735.56;4944694;29;20035;-87
2023/08/23 00:35:56;;;;;;;10.13;5.88;;;;;;;22.86;100.00;94733.25;4944901;29;20027;-86
2023/08/23 00:38:21;;;;;;;9.15;6.15;;;;;;;22.88;100.00;94734.47;4944370;29;20102;-87
2023/08/23 00:40:46;;;;;;;8.20;5.47;;;;;;;22.75;100.00;94730.28;4944641;29;20393;-87
2023/08/23 00:43:12;;;;;;;12.15;6.07;;;;;;;22.80;100.00;94723.91;4944593;29;20050;-87
2023/08/23 00:45:39;;;;;;;9.25;6.20;;;;;;;22.65;100.00;94722.72;4944218;29;20039;-86
2023/08/23 00:48:05;;;;;;;12.63;5.88;;;;;;;22.51;100.00;94725.72;4927964;29;20110;-86
2023/08/23 00:50:32;;;;;;;13.85;6.28;;;;;;;22.29;100.00;94727.72;4944018;29;20035;-87
2023/08/23 00:52:57;;;;;;;13.90;6.40;;;;;;;22.08;100.00;94725.13;4928474;29;20038;-86
2023/08/23 00:55:23;;;;;;;9.57;5.82;;;;;;;22.18;100.00;94720.13;4944100;29;20038;-87
2023/08/23 00:57:50;;;;;;;11.25;6.55;;;;;;;22.00;100.00;94724.88;4943778;29;20452;-86
2023/08/23 01:00:16;;;;;;;12.93;6.45;;;;;;;22.22;100.00;94724.78;4943790;29;20516;-86
2023/08/23 01:02:41;;;;;;;13.40;6.03;;;;;;;22.16;100.00;94729.56;4943383;29;20467;-86
2023/08/23 01:05:07;;;;;;;10.27;6.15;;;;;;;22.25;100.00;94730.25;4943975;29;20031;-86
2023/08/23 01:08:03;;;;;;;9.68;6.20;;;;;;;22.05;100.00;94728.47;4943572;29;20039;-87
2023/08/23 01:10:34;;;;;;;8.75;5.75;;;;;;;22.21;100.00;94734.72;4941603;29;20077;-87
2023/08/23 01:13:27;;;;;;;12.40;6.10;;;;;;;22.59;100.00;94738.19;4943909;29;20058;-87
2023/08/23 01:15:53;;;;;;;11.43;5.75;;;;;;;22.50;100.00;94724.16;4961281;29;20118;-87
2023/08/23 01:18:19;;;;;;;9.23;5.65;;;;;;;22.82;99.07;94727.03;4943631;29;20453;-88
2023/08/23 01:20:49;;;;;;;9.18;5.60;;;;;;;22.58;100.00;94732.03;4943994;29;20043;-87
2023/08/23 01:23:15;;;;;;;9.85;6.32;;;;;;;22.51;100.00;94731.84;4943646;29;20046;-87
2023/08/23 01:25:49;;;;;;;9.15;5.70;;;;;;;22.56;100.00;94736.19;4943683;29;20035;-87
2023/08/23 01:28:14;;;;;;;10.70;5.35;;;;;;;22.46;100.00;94724.03;4960112;29;20051;-87
2023/08/23 01:30:40;;;;;;;8.95;5.85;;;;;;;22.43;100.00;94733.50;4943044;29;20110;-88
2023/08/23 01:33:30;;;;;;;7.03;5.40;;;;;;;22.71;95.83;94740.06;4927179;29;20035;-87
2023/08/23 01:36:07;;;;;;;11.25;5.50;;;;;;;22.91;93.89;94729.56;4943609;29;20039;-87
2023/08/23 01:38:34;;;;;;;7.13;5.50;;;;;;;22.88;94.70;94728.34;4943356;29;20094;-87
2023/08/23 01:40:59;;;;;;;11.68;5.60;;;;;;;22.81;94.91;94723.56;4927299;29;20082;-87
2023/08/23 01:43:24;;;;;;;9.15;5.65;;;;;;;22.62;99.07;94724.16;4943479;29;20066;-87
2023/08/23 01:45:50;;;;;;;13.10;5.68;;;;;;;22.46;100.00;94724.81;4960712;29;20039;-87
2023/08/23 01:48:15;;;;;;;9.60;5.50;;;;;;;22.66;95.49;94722.34;4943386;29;20039;-87
2023/08/23 01:50:41;;;;;;;6.88;5.25;;;;;;;22.46;98.24;94726.72;4960631;29;20039;-87
2023/08/23 01:53:06;;;;;;;16.45;6.13;;;;;;;22.03;100.00;94720.78;4943480;29;20118;-87
2023/08/23 01:55:32;;;;;;;9.25;5.60;;;;;;;21.95;100.00;94725.13;4942730;29;20110;-87
2023/08/23 01:57:57;;;;;;;7.93;5.32;;;;;;;22.00;100.00;94716.13;4942931;29;20046;-87
2023/08/23 02:00:23;;;;;;;8.75;5.15;;;;;;;21.98;100.00;94721.78;4959852;29;20054;-86
2023/08/23 02:02:48;;;;;;;9.82;5.25;;;;;;;22.08;100.00;94722.47;4941685;29;20078;-87
2023/08/23 02:05:14;;;;;;;8.75;5.47;;;;;;;22.06;100.00;94722.03;4958872;29;20082;-87
2023/08/23 02:07:39;;;;;;;10.48;5.30;;;;;;;22.01;100.00;94720.34;4925590;29;20045;-87
2023/08/23 02:10:05;;;;;;;8.70;5.28;;;;;;;22.06;100.00;94720.13;4942016;29;20113;-86
2023/08/23 02:12:31;;;;;;;9.60;5.40;;;;;;;22.08;100.00;94719.78;4941766;29;20046;-86
2023/08/23 02:14:57;;;;;;;10.80;5.80;;;;;;;21.84;100.00;94721.31;4941732;29;20039;-86
2023/08/23 02:17:23;;;;;;;14.55;5.93;;;;;;;21.95;100.00;94717.09;4958381;29;20031;-87
2023/08/23 02:19:48;;;;;;;10.23;5.93;;;;;;;22.04;100.00;94714.34;4941353;29;20074;-86
2023/08/23 02:22:14;;;;;;;9.70;5.15;;;;;;;22.12;98.77;94721.47;4941201;29;20412;-86
2023/08/23 02:24:39;;;;;;;9.55;5.55;;;;;;;22.21;98.14;94720.56;4958656;29;20039;-86
2023/08/23 02:27:05;;;;;;;9.35;5.43;;;;;;;22.02;98.86;94719.22;4940968;29;20461;-86
2023/08/23 02:29:30;;;;;;;8.68;5.80;;;;;;;22.05;99.76;94715.13;4957854;29;20126;-86
2023/08/23 02:31:56;;;;;;;7.43;5.43;;;;;;;22.17;98.62;94712.47;4957762;29;20449;-87
2023/08/23 02:34:22;;;;;;;8.95;5.03;;;;;;;22.25;96.76;94708.13;4941600;29;20038;-86
2023/08/23 02:36:47;;;;;;;8.15;5.10;;;;;;;22.35;94.56;94701.56;4940603;29;20118;-87
2023/08/23 02:39:13;;;;;;;7.57;5.13;;;;;;;22.30;97.48;94699.91;4941060;29;20090;-86
2023/08/23 02:41:39;;;;;;;7.07;5.15;;;;;;;22.10;98.62;94704.22;4957302;28;20066;-86
2023/08/23 02:44:05;;;;;;;10.20;5.18;;;;;;;22.02;97.23;94701.34;4940520;29;20142;-86
2023/08/23 02:46:30;;;;;;;11.32;5.53;;;;;;;22.05;98.78;94709.78;4940982;29;20117;-87
2023/08/23 02:48:55;;;;;;;7.38;5.15;;;;;;;22.10;99.79;94704.22;4940726;29;20115;-87
2023/08/23 02:51:21;;;;;;;9.48;4.93;;;;;;;22.10;100.00;94701.56;4941226;29;20417;-86
2023/08/23 02:53:47;;;;;;;8.73;5.07;;;;;;;21.87;100.00;94701.97;4940325;29;20090;-87
2023/08/23 02:56:13;;;;;;;8.52;5.65;;;;;;;21.55;100.00;94701.66;4958009;29;20039;-86
2023/08/23 02:58:38;;;;;;;7.95;5.32;;;;;;;21.12;100.00;94701.72;4958120;29;20511;-86
2023/08/23 03:01:08;;;;;;;8.77;5.60;;;;;;;21.01;100.00;94703.22;4957997;29;20043;-87
2023/08/23 03:03:33;;;;;;;9.05;5.28;;;;;;;21.12;100.00;94699.06;4958313;29;20054;-86
2023/08/23 03:05:59;;;;;;;9.00;4.82;;;;;;;21.32;100.00;94702.81;4958125;29;20449;-86
2023/08/23 03:08:26;;;;;;;9.13;5.32;;;;;;;21.47;100.00;94705.97;4957513;29;20125;-87
2023/08/23 03:10:51;;;;;;;9.02;5.55;;;;;;;21.32;100.00;94702.81;4958001;29;20043;-86
2023/08/23 03:13:17;;;;;;;13.38;5.75;;;;;;;21.18;100.00;94697.78;4924672;29;20043;-86
2023/08/23 03:15:43;;;;;;;10.40;5.80;;;;;;;21.45;100.00;94702.84;4940544;29;20102;-86
2023/08/23 03:18:08;;;;;;;10.05;5.00;;;;;;;21.54;100.00;94700.09;4940211;29;20031;-86
2023/08/23 03:20:34;;;;;;;8.60;4.90;;;;;;;21.81;94.78;94689.97;4940284;29;20476;-86
2023/08/23 03:22:59;;;;;;;9.18;5.22;;;;;;;21.97;92.81;94695.44;4957628;29;20460;-86
2023/08/23 03:25:25;;;;;;;7.72;5.15;;;;;;;21.96;92.05;94693.91;4957695;29;20043;-86
2023/08/23 03:27:54;;;;;;;9.30;4.90;;;;;;;21.98;92.64;94697.78;4957255;29;20039;-86
2023/08/23 03:30:19;;;;;;;8.55;4.70;;;;;;;21.94;93.94;94691.56;4957179;29;20038;-86
2023/08/23 03:32:45;;;;;;;8.75;4.75;;;;;;;21.67;99.54;94703.63;4940164;29;20400;-86
2023/08/23 03:35:10;;;;;;;12.13;5.03;;;;;;;21.54;100.00;94700.09;4957558;29;20053;-84
2023/08/23 03:37:36;;;;;;;6.25;4.85;;;;;;;21.50;100.00;94696.53;4940123;29;20100;-86
2023/08/23 03:40:02;;;;;;;7.43;4.70;;;;;;;21.51;98.53;94698.88;4957413;29;20047;-86
2023/08/23 03:42:27;;;;;;;7.45;5.18;;;;;;;21.67;93.52;94695.63;4940153;29;20054;-86
2023/08/23 03:44:53;;;;;;;7.40;4.60;;;;;;;21.71;94.73;94699.19;4957260;29;20035;-86
2023/08/23 03:47:19;;;;;;;7.68;4.78;;;;;;;21.63;95.45;94689.34;4940277;29;20051;-86
2023/08/23 03:49:44;;;;;;;10.63;4.72;;;;;;;21.74;95.15;94690.53;4940269;29;20050;-86
2023/08/23 03:52:09;;;;;;;11.38;5.35;;;;;;;21.60;93.46;94701.47;4957473;29;20129;-86
2023/08/23 03:54:35;;;;;;;6.50;4.55;;;;;;;21.63;93.34;94706.13;4942498;29;20475;-86
2023/08/23 03:57:00;;;;;;;9.77;4.60;;;;;;;21.64;92.68;94709.56;4943854;29;20047;-86
2023/08/23 03:59:25;;;;;;;6.30;4.57;;;;;;;21.69;91.26;94704.84;4945193;29;20074;-86
2023/08/23 04:01:51;;;;;;;7.25;4.40;;;;;;;21.63;93.24;94702.69;4962325;29;20090;-86
2023/08/23 04:04:16;;;;;;;7.80;4.70;;;;;;;21.73;91.47;94704.97;4944875;29;20094;-86
2023/08/23 04:06:42;;;;;;;7.25;4.45;;;;;;;21.67;92.66;94693.72;4944695;29;20043;-87
2023/08/23 04:09:07;;;;;;;9.15;4.35;;;;;;;21.69;91.08;94701.41;4962225;29;20046;-87
2023/08/23 04:11:33;;;;;;;6.90;4.90;;;;;;;21.79;91.15;94700.19;4962341;29;20089;-87
2023/08/23 04:13:59;;;;;;;7.90;5.00;;;;;;;21.78;90.46;94699.41;4962278;29;20050;-87
2023/08/23 04:16:26;;;;;;;7.45;4.90;;;;;;;21.69;91.97;94709.41;4961960;29;20057;-87
2023/08/23 04:18:52;;;;;;;6.95;4.60;;;;;;;21.72;91.21;94708.75;4962310;29;20352;-86
2023/08/23 04:21:18;;;;;;;8.68;4.55;;;;;;;21.75;90.06;94711.53;4944761;29;20043;-86
2023/08/23 04:23:45;;;;;;;7.63;4.75;;;;;;;21.75;91.65;94708.06;4961674;29;20113;-87
2023/08/23 04:26:10;;;;;;;7.75;4.57;;;;;;;21.91;86.94;94705.56;4961664;29;20426;-86
2023/08/23 04:28:37;;;;;;;7.60;4.43;;;;;;;22.10;85.17;94699.69;4961692;29;20090;-86
2023/08/23 04:31:03;;;;;;;6.43;4.13;;;;;;;22.16;84.86;94701.00;4961880;29;20099;-87
2023/08/23 04:33:28;;;;;;;8.70;4.70;;;;;;;22.01;87.67;94707.00;4944595;29;20062;-86
2023/08/23 04:35:55;;;;;;;8.73;4.53;;;;;;;22.26;84.17;94709.69;4944310;29;20039;-86
2023/08/23 04:38:21;;;;;;;7.75;4.40;;;;;;;22.17;85.11;94705.22;4944531;29;20326;-86
2023/08/23 04:40:46;;;;;;;6.47;4.57;;;;;;;22.13;85.22;94703.56;4943633;29;20055;-87
2023/08/23 04:43:12;;;;;;;6.72;4.72;;;;;;;22.08;86.66;94707.22;4928919;29;20051;-87
2023/08/23 04:45:38;;;;;;;7.10;4.45;;;;;;;22.22;87.85;94703.44;4961580;29;20083;-87
2023/08/23 04:48:05;;;;;;;6.03;4.38;;;;;;;22.15;87.01;94699.47;4944641;29;20341;-86
2023/08/23 04:50:30;;;;;;;7.28;4.40;;;;;;;22.09;90.22;94708.00;4928281;29;20106;-87
2023/08/23 04:52:56;;;;;;;9.55;4.07;;;;;;;22.07;88.36;94708.34;4944591;29;20043;-86
2023/08/23 04:55:21;;;;;;;7.57;4.30;;;;;;;21.85;89.99;94699.66;4943961;29;20086;-87
2023/08/23 04:57:46;;;;;;;5.53;4.43;;;;;;;21.70;90.55;94709.06;4961594;29;20113;-86
2023/08/23 05:00:14;;;;;;;7.40;4.50;;;;;;;21.91;91.07;94700.22;4944148;29;20042;-87
2023/08/23 05:02:39;;;;;;;10.48;4.68;;;;;;;21.81;89.48;94706.78;4944059;29;20035;-87
2023/08/23 05:05:06;;;;;;;5.45;4.03;;;;;;;21.75;91.32;94708.88;4943577;29;20050;-87
2023/08/23 05:07:34;;;;;;;9.23;4.32;;;;;;;21.74;93.04;94701.97;4943925;29;20508;-85
2023/08/23 05:09:59;;;;;;;6.78;4.18;;;;;;;21.73;93.36;94703.09;4943694;29;20046;-86
2023/08/23 05:12:25;;;;;;;6.72;4.50;;;;;;;21.63;95.33;94711.47;4961046;29;20046;-85
2023/08/23 05:14:56;;;;;;;7.90;4.15;;;;;;;21.74;94.20;94715.31;4943937;29;20117;-85
2023/08/23 05:17:22;;;;;;;7.43;4.13;;;;;;;21.99;94.12;94707.31;4960196;29;20038;-87
2023/08/23 05:19:47;;;;;;;8.35;4.05;;;;;;;22.06;94.41;94711.34;4943647;29;20628;-87
2023/08/23 05:22:12;;;;;;;5.55;4.10;;;;;;;22.29;91.10;94712.44;4961140;29;20391;-87
2023/08/23 05:24:38;;;;;;;6.22;4.05;;;;;;;22.28;93.53;94708.22;4944202;29;20047;-89
2023/08/23 05:27:03;;;;;;;11.90;4.53;;;;;;;22.09;99.20;94716.78;4961086;29;20118;-88
2023/08/23 05:29:28;;;;;;;7.35;4.50;;;;;;;22.22;98.18;94714.13;4961043;29;20043;-88
2023/08/23 05:31:54;;;;;;;5.88;3.88;;;;;;;22.48;96.83;94719.16;4943473;29;20047;-88
2023/08/23 05:34:20;;;;;;;7.32;4.70;;;;;;;22.57;93.99;94719.81;4943919;29;20047;-88
2023/08/23 05:36:46;;;;;;;9.30;4.20;;;;;;;22.70;96.33;94717.91;4943856;29;20162;-88
2023/08/23 05:39:11;;;;;;;13.05;4.55;;;;;;;22.52;100.00;94719.25;4943275;29;20094;-88
2023/08/23 05:41:37;;;;;;;9.45;4.65;;;;;;;22.47;100.00;94717.59;4943743;29;20047;-88
2023/08/23 05:44:02;;;;;;;6.60;4.22;;;;;;;22.58;100.00;94720.59;4960774;29;20043;-89
2023/08/23 05:46:28;;;;;;;6.35;4.75;;;;;;;22.77;100.00;94727.25;4927689;29;20035;-88
2023/08/23 05:48:53;;;;;;;8.60;4.07;;;;;;;22.79;100.00;94719.66;4943304;29;20433;-88
2023/08/23 05:51:20;;;;;;;6.63;4.03;;;;;;;22.97;100.00;94712.97;4960702;29;20047;-88
2023/08/23 05:53:45;;;;;;;11.07;4.57;;;;;;;23.24;90.93;94718.69;4943200;29;20388;-88
2023/08/23 05:56:11;;;;;;;8.95;4.53;;;;;;;23.34;94.02;94724.66;4960589;29;20039;-89
2023/08/23 05:58:36;;;;;;;8.25;4.10;;;;;;;23.23;100.00;94722.44;4943040;29;20035;-89
2023/08/23 06:01:01;;;;;;;7.35;4.47;;;;;;;23.20;100.00;94725.81;4943042;29;20038;-88
2023/08/23 06:03:27;;;;;;;12.48;4.55;;;;;;;23.29;100.00;94725.69;4960168;29;20074;-88
2023/08/23 06:05:56;;;;;;;7.80;4.28;;;;;;;23.62;93.78;94715.84;4943045;29;20035;-87
2023/08/23 06:08:21;;;;;;;7.93;4.40;;;;;;;23.72;92.08;94718.03;4930371;29;20068;-87
2023/08/23 06:10:47;;;;;;;5.40;4.15;;;;;;;23.90;92.36;94720.38;4941083;29;20039;-88
2023/08/23 06:13:12;;;;;;;6.45;4.57;;;;;;;23.79;97.68;94714.78;4923783;29;20036;-89
2023/08/23 06:15:37;;;;;;;6.57;4.32;;;;;;;24.06;96.11;94717.75;4908060;29;20036;-88
2023/08/23 06:18:03;;;;;;;11.13;4.38;;;;;;;24.23;96.43;94716.59;4923986;29;20043;-87
2023/08/23 06:20:28;;;;;;;6.68;4.22;;;;;;;24.42;92.51;94719.38;4908142;29;20039;-88
2023/08/23 06:22:56;;;;;;;8.52;4.43;;;;;;;24.28;96.23;94719.81;4923960;29;20043;-88
2023/08/23 06:25:22;;;;;;;7.65;4.20;;;;;;;24.53;95.22;94719.59;4923749;29;20122;-87
2023/08/23 06:27:47;;;;;;;8.52;4.45;;;;;;;24.56;92.68;94720.81;4940762;29;20098;-87
2023/08/23 06:30:15;;;;;;;9.13;4.03;;;;;;;24.71;95.12;94720.00;4923499;29;20071;-88
2023/08/23 06:32:46;;;;;;;10.10;4.07;;;;;;;24.84;100.00;94719.94;4930551;29;20035;-86
2023/08/23 06:35:13;;;;;;;8.00;4.13;;;;;;;24.80;100.00;94721.72;4942254;29;20423;-86
2023/08/23 06:37:38;;;;;;;8.27;4.43;;;;;;;24.87;100.00;94724.56;4959454;29;20061;-86
2023/08/23 06:40:04;;;;;;;6.30;4.22;;;;;;;24.96;99.75;94721.69;4941980;29;20031;-86
2023/08/23 06:42:30;;;;;;;5.95;4.00;;;;;;;25.07;100.00;94724.59;4959152;29;20388;-86
2023/08/23 06:44:56;;;;;;;4.60;3.78;;;;;;;25.18;100.00;94728.28;4959472;29;20042;-86
2023/08/23 06:47:21;;;;;;;9.23;4.22;;;;;;;25.19;100.00;94727.13;4926268;29;20030;-86
2023/08/23 06:49:46;;;;;;;5.18;4.35;;;;;;;25.25;100.00;94723.06;4941975;29;20027;-86
2023/08/23 06:52:12;;;;;;;11.27;4.43;;;;;;;25.32;100.00;94727.78;4959376;29;20091;-86
2023/08/23 06:54:37;;;;;;;5.15;3.97;;;;;;;25.39;100.00;94730.59;4942394;29;20039;-86
2023/08/23 06:57:03;;;;;;;6.38;4.07;;;;;;;25.48;100.00;94732.28;4942015;29;20361;-87
2023/08/23 06:59:28;;;;;;;7.70;4.70;;;;;;;25.54;100.00;94729.00;4958020;29;20060;-86
2023/08/23 07:01:54;;;;;;;7.55;4.30;;;;;;;25.59;100.00;94733.28;4941961;29;20041;-87
2023/08/23 07:04:19;;;;;;;12.45;4.75;;;;;;;25.32;100.00;94724.31;4942036;29;20043;-87
2023/08/23 07:06:44;;;;;;;8.68;4.90;;;;;;;25.57;100.00;94729.41;4959422;29;20039;-88
2023/08/23 07:09:10;;;;;;;7.75;5.00;;;;;;;25.60;100.00;94740.19;4941592;29;20121;-87
2023/08/23 07:11:36;;;;;;;8.23;4.40;;;;;;;25.74;100.00;94731.66;4942064;29;20081;-88
2023/08/23 07:14:01;;;;;;;6.95;4.78;;;;;;;25.60;100.00;94739.44;4957826;29;20395;-88
2023/08/23 07:16:31;;;;;;;7.38;4.82;;;;;;;25.70;100.00;94744.22;4958866;29;20424;-88
2023/08/23 07:18:57;;;;;;;8.05;4.85;;;;;;;25.88;98.86;94743.78;4941922;29;20420;-88
2023/08/23 07:21:22;;;;;;;5.90;4.80;;;;;;;26.04;97.83;94743.63;4926410;29;20130;-88
2023/08/23 07:23:48;;;;;;;16.55;4.80;;;;;;;26.19;100.00;94747.38;4941787;29;20050;-88
2023/08/23 07:26:13;;;;;;;7.18;4.32;;;;;;;26.21;98.61;94745.09;4959170;29;20042;-87
2023/08/23 07:28:39;;;;;;;8.23;4.97;;;;;;;26.05;100.00;94751.34;4941036;29;20047;-87
2023/08/23 07:31:04;;;;;;;7.15;4.47;;;;;;;26.22;100.00;94749.34;4925778;29;20531;-89
2023/08/23 07:33:29;;;;;;;8.15;4.30;;;;;;;26.48;100.00;94745.16;4925722;29;20094;-87
2023/08/23 07:35:57;;;;;;;6.60;4.57;;;;;;;26.52;100.00;94749.44;4959042;29;20330;-88
2023/08/23 07:38:23;;;;;;;6.25;4.82;;;;;;;26.56;100.00;94752.19;4941421;29;20433;-88
2023/08/23 07:40:48;;;;;;;7.70;4.50;;;;;;;26.75;100.00;94750.53;4941307;29;20046;-88
2023/08/23 07:43:13;;;;;;;8.45;4.60;;;;;;;26.45;100.00;94764.69;4941513;29;20031;-88
2023/08/23 07:45:39;;;;;;;7.18;4.13;;;;;;;26.82;100.00;94751.41;4941560;29;20039;-89
2023/08/23 07:48:05;;;;;;;9.55;4.78;;;;;;;26.73;100.00;94747.44;4958423;29;20110;-88
2023/08/23 07:50:30;;;;;;;7.70;4.53;;;;;;;26.92;100.00;94758.09;4941479;29;20081;-86
2023/08/23 07:52:55;;;;;;;11.38;4.88;;;;;;;26.59;100.00;94758.72;4958281;29;20066;-85
2023/08/23 07:55:43;;;;;;;5.68;4.57;;;;;;;27.01;96.97;94757.81;4958597;29;20035;-86
2023/08/23 07:58:11;;;;;;;5.95;4.70;;;;;;;27.25;95.27;94761.22;4958443;29;20475;-86
2023/08/23 08:00:37;;;;;;;9.68;4.68;;;;;;;27.15;95.89;94756.47;4958400;29;20039;-86
2023/08/23 08:03:03;;;;;;;6.22;4.65;;;;;;;27.19;97.42;94758.06;4941354;29;20046;-86
2023/08/23 08:05:29;;;;;;;9.90;5.03;;;;;;;27.35;98.67;94755.19;4941370;29;20118;-86
2023/08/23 08:07:55;;;;;;;8.45;4.63;;;;;;;27.52;100.00;94758.44;4940969;29;20031;-86
2023/08/23 08:10:20;;;;;;;7.50;4.43;;;;;;;27.76;94.72;94764.47;4925695;29;20031;-86
2023/08/23 08:12:46;;;;;;;6.90;4.70;;;;;;;27.79;94.94;94761.84;4925337;29;20027;-86
2023/08/23 08:15:11;;;;;;;6.75;5.18;;;;;;;27.82;97.82;94767.63;4941011;29;20046;-85
2023/08/23 08:17:37;;;;;;;6.93;5.00;;;;;;;27.99;95.83;94760.88;4940867;29;20037;-84
2023/08/23 08:20:08;;;;;;;13.25;5.15;;;;;;;27.83;97.42;94756.50;4941252;29;20035;-85
2023/08/23 08:22:33;;;;;;;7.22;4.80;;;;;;;28.14;94.72;94772.56;4941893;29;20171;-85
2023/08/23 08:24:59;;;;;;;5.97;4.75;;;;;;;28.34;89.17;94762.38;4941134;29;20117;-84
2023/08/23 08:27:24;;;;;;;7.55;5.38;;;;;;;28.48;91.13;94762.50;4941112;29;20035;-84
2023/08/23 08:29:50;;;;;;;7.40;5.20;;;;;;;28.47;91.87;94757.47;4941122;29;20512;-84
2023/08/23 08:32:15;;;;;;;7.63;5.00;;;;;;;28.44;92.33;94761.66;4941109;29;20043;-84
2023/08/23 08:34:40;;;;;;;6.43;5.00;;;;;;;28.74;91.36;94759.97;4940703;29;20467;-84
2023/08/23 08:37:06;;;;;;;11.07;5.22;;;;;;;28.79;94.22;94762.28;4941021;29;20401;-85
2023/08/23 08:39:32;;;;;;;6.50;4.93;;;;;;;28.81;89.33;94761.97;4941008;29;20449;-85
2023/08/23 08:41:59;;;;;;;7.00;5.07;;;;;;;29.10;87.74;94759.41;4943957;29;20035;-85
2023/08/23 08:44:25;;;;;;;13.07;5.00;;;;;;;29.21;81.96;94766.41;4944536;29;20043;-84
2023/08/23 08:46:51;;;;;;;8.68;5.10;;;;;;;29.18;82.39;94753.69;4944019;29;20039;-84
2023/08/23 08:49:17;;;;;;;9.65;4.75;;;;;;;29.34;82.87;94764.16;4961472;29;20512;-84
2023/08/23 08:51:46;;;;;;;8.98;4.65;;;;;;;29.48;81.30;94766.16;4944061;29;20043;-84
2023/08/23 08:54:15;;;;;;;9.07;5.05;;;;;;;29.47;80.73;94761.13;4944105;29;20400;-84
2023/08/23 08:56:42;;;;;;;5.55;4.43;;;;;;;29.55;77.53;94756.53;4943939;29;20031;-84
2023/08/23 08:59:08;;;;;;;8.45;6.05;;;;;;;29.29;76.71;94758.34;4961178;29;20346;-84
2023/08/23 09:01:35;;;;;;;9.75;5.47;;;;;;;29.59;82.90;94754.63;4944105;29;20093;-83
2023/08/23 09:04:00;;;;;;;7.07;5.80;;;;;;;29.76;69.88;94755.81;4944230;29;20112;-84
2023/08/23 09:06:27;;;;;;;7.57;5.75;;;;;;;29.86;66.08;94757.78;4944165;29;20048;-84
2023/08/23 09:08:53;;;;;;;13.13;5.70;;;;;;;29.94;65.73;94755.88;4960956;29;20476;-84
2023/08/23 09:11:18;;;;;;;10.88;5.30;;;;;;;30.19;66.48;94753.22;4944079;29;20338;-84
2023/08/23 09:13:44;;;;;;;9.57;5.55;;;;;;;30.25;63.57;94750.91;4943740;29;20042;-84
2023/08/23 09:16:09;;;;;;;11.15;5.53;;;;;;;30.11;67.50;94759.78;4961110;29;20085;-83
2023/08/23 09:18:35;;;;;;;11.48;5.28;;;;;;;30.16;76.42;94753.97;4943771;29;20031;-84
2023/08/23 09:21:00;;;;;;;8.35;5.00;;;;;;;29.90;66.73;94752.41;4960959;29;20031;-83
2023/08/23 09:23:34;;;;;;;11.35;5.13;;;;;;;30.09;64.77;94750.50;4943391;29;20041;-83
2023/08/23 09:25:59;;;;;;;8.27;5.82;;;;;;;30.26;63.97;94752.44;4943873;29;20330;-84
2023/08/23 09:28:28;;;;;;;7.63;5.70;;;;;;;30.21;64.01;94750.13;4927938;29;20096;-83
2023/08/23 09:30:54;;;;;;;10.82;5.55;;;;;;;30.46;62.80;94760.19;4960728;29;20042;-83
2023/08/23 09:33:20;;;;;;;8.93;4.90;;;;;;;30.74;66.85;94753.22;4960801;29;20039;-83
2023/08/23 09:35:49;;;;;;;10.80;5.65;;;;;;;30.68;60.96;94752.06;4960687;29;20042;-83
2023/08/23 09:38:19;;;;;;;7.72;4.80;;;;;;;30.55;61.26;94757.09;4944070;29;20051;-84
2023/08/23 09:40:47;;;;;;;7.60;4.60;;;;;;;30.57;60.60;94752.84;4943438;29;20050;-83
2023/08/23 09:43:14;;;;;;;8.60;4.68;;;;;;;30.82;59.60;94756.69;4960552;29;20065;-83
2023/08/23 09:45:40;;;;;;;11.65;4.88;;;;;;;30.99;60.64;94752.41;4943369;29;20109;-84
2023/08/23 09:48:06;;;;;;;7.57;4.80;;;;;;;31.12;57.46;94752.75;4942914;29;20078;-83
2023/08/23 09:50:32;;;;;;;8.27;4.93;;;;;;;30.87;58.45;94748.16;4943320;29;20051;-84
2023/08/23 09:53:07;;;;;;;6.68;4.68;;;;;;;31.18;58.58;94754.66;4926833;29;20050;-84
2023/08/23 09:55:33;;;;;;;6.95;5.00;;;;;;;31.20;60.89;94748.09;4960148;29;20038;-84
2023/08/23 09:58:00;;;;;;;6.28;4.20;;;;;;;31.24;59.98;94744.25;4926899;29;20085;-85
2023/08/23 10:00:27;;;;;;;6.07;4.32;;;;;;;31.22;58.93;94749.28;4943195;29;20039;-84
2023/08/23 10:02:53;;;;;;;5.80;4.65;;;;;;;31.31;57.77;94738.03;4942814;29;20066;-84
2023/08/23 10:05:19;;;;;;;10.70;4.65;;;;;;;31.03;51.60;94742.34;4927121;29;20388;-84
2023/08/23 10:07:45;;;;;;;31.58;5.57;;;;;;;31.47;54.12;94736.78;4942650;29;20034;-84
2023/08/23 10:10:11;;;;;;;5.47;4.15;;;;;;;31.74;52.11;94735.09;4942744;29;20027;-84
2023/08/23 10:12:39;;;;;;;9.48;4.25;;;;;;;31.80;51.29;94735.50;4926896;29;20038;-83
2023/08/23 10:15:06;;;;;;;6.22;4.13;;;;;;;31.70;51.00;94733.56;4926947;29;20027;-84
2023/08/23 10:17:31;;;;;;;7.30;4.60;;;;;;;31.68;56.40;94731.25;4926858;29;20464;-83
2023/08/23 10:19:57;;;;;;;7.75;4.13;;;;;;;31.30;51.62;94725.66;4942718;29;20035;-84
2023/08/23 10:22:23;;;;;;;6.50;4.13;;;;;;;31.57;50.29;94728.63;4942744;29;20039;-84
2023/08/23 10:24:50;;;;;;;7.47;4.20;;;;;;;31.41;48.06;94728.31;4942659;29;20045;-83
2023/08/23 10:27:16;;;;;;;5.25;3.97;;;;;;;31.45;48.41;94729.06;4942491;29;20039;-83
2023/08/23 10:29:42;;;;;;;6.57;3.92;;;;;;;31.77;47.48;94728.09;4959696;29;20512;-83
2023/08/23 10:32:11;;;;;;;5.63;3.75;;;;;;;31.65;45.45;94723.94;4959431;29;20035;-83
2023/08/23 10:34:38;;;;;;;4.90;3.50;;;;;;;31.71;43.14;94722.34;4942248;29;20039;-83
2023/08/23 10:37:14;;;;;;;7.43;3.97;;;;;;;31.57;43.01;94720.50;4959085;29;20114;-84
2023/08/23 10:39:49;;;;;;;7.15;3.40;;;;;;;31.74;42.97;94709.94;4942119;29;20082;-88
2023/08/23 10:42:15;;;;;;;8.73;3.50;;;;;;;31.97;44.65;94719.50;4942690;29;20027;-86
2023/08/23 10:44:59;;;;;;;5.43;3.05;;;;;;;31.85;43.51;94709.94;4942007;29;20078;-87
2023/08/23 10:47:25;;;;;;;4.35;3.17;;;;;;;31.92;44.57;94712.56;4926720;29;20042;-88
2023/08/23 10:49:51;;;;;;;5.32;3.85;;;;;;;31.96;42.88;94712.56;4942497;29;20039;-86
2023/08/23 10:52:17;;;;;;;9.45;4.03;;;;;;;32.04;41.86;94713.28;4942002;29;20341;-85
2023/08/23 10:54:42;;;;;;;6.75;4.03;;;;;;;32.14;45.26;94707.75;4941971;29;20031;-85
2023/08/23 10:57:09;;;;;;;7.00;3.80;;;;;;;32.18;42.95;94710.44;4942194;29;20119;-88
2023/08/23 10:59:35;;;;;;;5.70;3.22;;;;;;;32.20;43.97;94710.03;4926464;29;20027;-87
2023/08/23 11:02:00;;;;;;;6.65;3.70;;;;;;;32.04;41.86;94713.28;4926229;29;20031;-86
2023/08/23 11:04:26;;;;;;;5.30;3.30;;;;;;;31.94;40.63;94715.66;4941466;29;20038;-85
2023/08/23 11:06:51;;;;;;;6.93;3.30;;;;;;;32.07;42.72;94717.88;4958811;29;20437;-85
2023/08/23 11:09:17;;;;;;;5.88;3.67;;;;;;;32.10;41.35;94712.44;4958985;29;20035;-85
2023/08/23 11:11:43;;;;;;;5.55;3.53;;;;;;;32.10;42.46;94711.66;4942014;29;20027;-87
2023/08/23 11:14:08;;;;;;;7.18;3.63;;;;;;;32.20;43.89;94708.09;4941861;29;20034;-87
2023/08/23 11:16:35;;;;;;;5.53;3.63;;;;;;;32.57;42.23;94695.81;4942354;29;20404;-87
2023/08/23 11:19:04;;;;;;;5.38;3.60;;;;;;;32.61;41.48;94700.41;4942008;29;20082;-87
2023/08/23 11:21:31;;;;;;;5.95;3.50;;;;;;;32.65;41.27;94696.50;4942134;29;20038;-86
2023/08/23 11:23:57;;;;;;;5.03;3.30;;;;;;;32.53;43.42;94695.06;4941864;29;20035;-86
2023/08/23 11:26:22;;;;;;;5.72;3.90;;;;;;;32.49;43.54;94693.53;4941625;29;20097;-86